Time,TemperatureF,DewpointF,PressureIn,WindDirection,WindDirectionDegrees,WindSpeedMPH,WindSpeedGustMPH,Humidity,HourlyPrecipIn,Conditions,Clouds,dailyrainin,SolarRadiationWatts/m^2,SoftwareType,DateUTC
2013-07-22 19:03:00,77.6,-99.9,29.56,North,1,0.0,0.0,0,0.00,,,0.05,0,Wunderground v.1.15,2013-07-22 12:03:00,
2013-07-22 19:08:00,77.5,-99.9,29.56,North,359,0.0,0.0,0,0.00,,,0.05,0,Wunderground v.1.15,2013-07-22 12:08:00,
2013-07-22 19:18:00,78.1,-99.9,29.57,West,267,1.0,2.0,0,0.06,,,0.06,0,Wunderground v.1.15,2013-07-22 12:18:00,
2013-07-22 19:23:00,78.5,-99.9,29.57,NW,324,1.0,1.0,0,0.06,,,0.06,0,Wunderground v.1.15,2013-07-22 12:23:00,
2013-07-22 19:29:00,78.6,-99.9,29.57,NNW,347,2.0,3.0,0,0.07,,,0.07,0,Wunderground v.1.15,2013-07-22 12:29:00,
2013-07-22 19:39:00,78.5,-99.9,29.59,North,0,2.0,3.0,0,0.07,,,0.08,0,Wunderground v.1.15,2013-07-22 12:39:00,
2013-07-22 19:44:00,78.6,-99.9,29.59,NE,39,2.0,2.0,0,0.07,,,0.08,0,Wunderground v.1.15,2013-07-22 12:44:00,
2013-07-22 19:49:00,78.6,-99.9,29.61,East,93,4.0,4.0,0,0.05,,,0.09,0,Wunderground v.1.15,2013-07-22 12:49:00,
2013-07-22 19:59:00,77.6,-99.9,29.61,NW,322,6.0,10.0,0,0.20,,,0.11,0,Wunderground v.1.15,2013-07-22 12:59:00,
2013-07-22 20:04:00,77.4,-99.9,29.63,North,4,7.0,7.0,0,0.23,,,0.13,0,Wunderground v.1.15,2013-07-22 13:04:00,
2013-07-22 20:09:00,77.1,-99.9,29.63,NE,49,6.0,7.0,0,0.23,,,0.14,0,Wunderground v.1.15,2013-07-22 13:09:00,
2013-07-22 20:19:00,76.7,-99.9,29.63,NNE,28,2.0,6.0,0,0.22,,,0.17,0,Wunderground v.1.15,2013-07-22 13:19:00,
2013-07-22 20:28:00,76.4,-99.9,29.63,North,1,1.0,2.0,0,0.09,,,0.18,0,Wunderground v.1.15,2013-07-22 13:28:00,
2013-07-22 20:33:00,76.3,-99.9,29.63,West,272,1.0,1.0,0,0.14,,,0.19,0,Wunderground v.1.15,2013-07-22 13:33:00,
2013-07-22 20:38:00,76.3,-99.9,29.63,SSE,162,1.0,1.0,0,0.10,,,0.19,0,Wunderground v.1.15,2013-07-22 13:38:00,
2013-07-22 20:48:00,76.5,-99.9,29.63,SW,220,1.0,2.0,0,0.06,,,0.20,0,Wunderground v.1.15,2013-07-22 13:48:00,
2013-07-22 20:53:00,76.6,-99.9,29.63,ESE,117,1.0,1.0,0,0.09,,,0.20,0,Wunderground v.1.15,2013-07-22 13:53:00,
2013-07-22 20:58:00,76.7,-99.9,29.63,NW,309,1.0,1.0,0,0.06,,,0.20,0,Wunderground v.1.15,2013-07-22 13:58:00,
2013-07-22 21:03:00,76.7,-99.9,29.63,NNE,29,1.0,1.0,0,0.04,,,0.20,0,Wunderground v.1.15,2013-07-22 14:03:00,
2013-07-22 21:13:00,77.0,-99.9,29.63,North,1,0.0,0.0,0,0.00,,,0.20,0,Wunderground v.1.15,2013-07-22 14:13:00,
2013-07-22 21:18:00,76.9,-99.9,29.62,North,1,0.0,0.0,0,0.00,,,0.21,0,Wunderground v.1.15,2013-07-22 14:18:00,
2013-07-22 21:23:00,77.0,-99.9,29.62,North,1,0.0,0.0,0,0.00,,,0.21,0,Wunderground v.1.15,2013-07-22 14:23:00,
2013-07-22 21:33:00,76.8,-99.9,29.61,North,356,1.0,1.0,0,0.04,,,0.22,0,Wunderground v.1.15,2013-07-22 14:33:00,
2013-07-22 21:38:00,76.8,-99.9,29.61,North,356,0.0,1.0,0,0.04,,,0.22,0,Wunderground v.1.15,2013-07-22 14:38:00,
2013-07-22 21:44:00,76.7,-99.9,29.61,North,356,0.0,1.0,0,0.04,,,0.22,0,Wunderground v.1.15,2013-07-22 14:44:00,
2013-07-22 21:53:00,76.8,-99.9,29.62,NNW,330,0.0,0.0,0,0.00,,,0.22,0,Wunderground v.1.15,2013-07-22 14:53:00,